Ocean Exporter — VRXJ4 — position and weather

sailwx.info

Track history (hours):
 
Tides and Currents Weather Stations Pressure Air Temp Water Temp Dewpoint Dewpoint Depression Visibility Wind Speed Wind Dir Waves Ship Positions

Ocean Exporter

Last reported at 2014-Jul-26 12:24 UTC. Time now 2014-Jul-28 14:22 UTC.
Position S 39°01' E 145°48'.

Length 169 m; draft 9.4 m.

Type: Cargo ship. MMSI: 477980000.

Date/timePositionNaut miles runAvg speedWind from/ knotsBaromVisibWave heightAir tempDewpointWater temp
2014-Jul-26 12:24S 39°01' E 145°48'8 8.9
2014-Jul-26 11:33S 39°05' E 145°57'10 9.7
2014-Jul-26 10:33S 39°10' E 146°07'10 9.5
2014-Jul-26 09:33S 39°12' E 146°19'10 9.7
2014-Jul-26 08:33S 39°09' E 146°31'10 9.8
2014-Jul-26 07:33S 39°06' E 146°43'9 9.1
2014-Jul-26 06:33S 39°03' E 146°54'9 8.7
2014-Jul-26 05:33S 39°00' E 147°04'9 8.7
2014-Jul-26 04:33S 38°58' E 147°15'10 9.0
2014-Jul-26 03:29S 38°55' E 147°27'11610.7
2014-Jul-25 16:34S 37°59' E 149°37'1111.4
2014-Jul-25 15:33S 37°52' E 149°49'1211.9
2014-Jul-25 14:32S 37°45' E 150°01'1111.4
2014-Jul-25 13:33S 37°37' E 150°12'1212.5
2014-Jul-25 12:33S 37°26' E 150°19'  
Track history (hours):
 
Tides and Currents Weather Stations Pressure Air Temp Water Temp Dewpoint Dewpoint Depression Visibility Wind Speed Wind Dir Waves Ship Positions

Ocean Exporter

Last reported at 2014-Jul-26 12:24 UTC. Time now 2014-Jul-28 14:22 UTC.
Position S 39°01' E 145°48'.

Length 169 m; draft 9.4 m.

Type: Cargo ship. MMSI: 477980000.

Date/timePositionNaut miles runAvg speedWind from/ knotsBaromVisibWave heightAir tempDewpointWater temp
2014-Jul-26 12:24S 39°01' E 145°48'8 8.9
2014-Jul-26 11:33S 39°05' E 145°57'10 9.7
2014-Jul-26 10:33S 39°10' E 146°07'10 9.5
2014-Jul-26 09:33S 39°12' E 146°19'10 9.7
2014-Jul-26 08:33S 39°09' E 146°31'10 9.8
2014-Jul-26 07:33S 39°06' E 146°43'9 9.1
2014-Jul-26 06:33S 39°03' E 146°54'9 8.7
2014-Jul-26 05:33S 39°00' E 147°04'9 8.7
2014-Jul-26 04:33S 38°58' E 147°15'10 9.0
2014-Jul-26 03:29S 38°55' E 147°27'11610.7
2014-Jul-25 16:34S 37°59' E 149°37'1111.4
2014-Jul-25 15:33S 37°52' E 149°49'1211.9
2014-Jul-25 14:32S 37°45' E 150°01'1111.4
2014-Jul-25 13:33S 37°37' E 150°12'1212.5
2014-Jul-25 12:33S 37°26' E 150°19'  

Dump ship's entire track history